Airfield :
LOGIN :

Register | Disclaimer

   EN    FR    IT 

 










Legend :    VFR   Marginal VFR   IFR   Intensive IFR   Very Intensive IFR
Visi :
Ceiling :
>= 8 km
>= 3000ft
5 to 8 km
1000 to 3000 ft
1500m to 5 km
500 to 1000 ft
800 to 1500m
200 to 500 ft
< 800m
< 200 ft
Symbols :   Thunderstorms  Fog  Heavy snow  Heavy precipitations  Wind > 20 kt
SIGMETs :     Misc.  Thunderstorms  Icing  Turbulence  Mountain Waves  Volcanic Ashes






- Airport Elevation : 7 ft
- IATA code : XHE


LFTH - Hyeres

CURRENT METAR :
  • 152330Z AUTO 11009KT 9999 FEW017 BKN046 OVC220 15/12 Q1016 TEMPO BKN014

EXPIRED METARs :
  • 152300Z AUTO 11010KT 9999 BKN015 BKN023 BKN031 15/13 Q1016 TEMPO BKN014
  • 152230Z AUTO 08006KT 030V110 9999 SCT014 BKN028 OVC034 15/12 Q1016 TEMPO BKN014
  • 152200Z AUTO 10009KT 9999 OVC042 15/12 Q1016 TEMPO BKN014
  • 152130Z AUTO 11007KT CAVOK 14/11 Q1016 TEMPO BKN014
  • 152100Z AUTO 11008KT 080V140 9999 SCT017 14/11 Q1016 TEMPO BKN014

TAF TAF LFTH
Valid from the 15 at 21:00 until the 16 at 21:00 UTC


152000Z 1521/1621 12012KT 9999 BKN025
TEMPO 1521/1606 BKN014
BECMG 1606/1609 09015G25KT
BECMG 1611/1614 FEW030
BECMG 1615/1618 08020G35KT



MET'MAP, your aeronautical weather chart ! - Copyright ORBIFLY December 2007 - Disclaimer

ORBIFLY MET'MAP TEAM :

Programming & Development : Alexandra Zaïnal
Concept & original design : Baudouin d'Aumeries
Assistance for programming : Marc-Olivier Méhu
Technical & hardware support : Manuel Goepfert

Contact : metmap@orbifly.com




SOURCES & CREDITS :

   NOAA